COOK1: Arkansas River Nr Coolidge, KS

                                SHEF ID:       COOK1     ARKANSAS R NR COOLIDGE, KS
STATION TYPE:
Regulating: Stage = 8.00, Flow = 2028

PRECIP STAGE STAGE(2) RIV-FLOW WTR-TEMP CONDUCT BAT-LOAD
in ft ft cfs F umho/cm volt
Ccp-Rev Ccp-Rev Ccp-Rev Ccp-Rev Ccp-Rev Ccp-Rev Ccp-Rev
(America/Chicago)
07/26 00:00 0.00 4.53 4.71 373 78.30 3310 12.95
07/26 01:00 0.00 4.57 4.72 384 77.49 3303 12.95
07/26 02:00 0.00 4.54 4.73 376 76.64 3290 12.89
07/26 03:00 0.00 4.56 4.74 381 75.87 3287 12.89
07/26 04:00 0.00 4.54 4.74 376 75.06 3301 12.89
07/26 05:00 0.00 4.58 4.73 386 74.28 3296 12.89
07/26 06:00 0.00 4.58 4.75 386 73.60 3265 12.83
07/26 07:00 0.00 4.56 4.74 381 72.95 3245 12.83
07/26 08:00 0.00 4.57 4.77 384 72.48 3260 12.83
07/26 09:00 0.00 4.58 4.76 386 72.23 3276 12.89
07/26 10:00 0.00 4.61 4.79 394 72.37 3285 13.18
07/26 11:00 0.00 4.61 4.79 394 72.97 3287 13.59
07/26 12:00 0.00 4.61 4.81 394 73.81 3289 13.71
07/26 13:00 0.00 4.60 4.80 392 74.93 3290 13.77
07/26 14:00 0.00 4.62 4.83 397 76.17 3294 13.71
07/26 15:00 0.00 4.63 4.82 400 77.32 3298 13.77
07/26 16:00 0.00 4.64 4.83 402 78.40 3307 13.59
07/26 17:00 0.00 4.63 4.78 400 79.23 3303 13.30
07/26 18:00 0.00 4.64 4.81 402 79.70 3303 13.30
07/26 19:00 0.00 4.63 4.81 400 79.75 3298 13.18
07/26 20:00 0.00 4.62 4.79 397 79.43 3290 13.18
07/26 21:00 0.00 4.61 4.78 394 78.85 3287 13.07
07/26 22:00 0.00 4.64 4.81 402 78.21 3289 13.00
07/26 23:00 ---- ---- ---- ---- ---- ---- ----
Data processed at Sat 27Jul2024 04:30 GMT

Parsing this webpage?

Checkout our new Data API! CWMSDataAPI (CDA)

Timeseries IDs (TSIDs)

TSIDs used from left to right in the data table
COOL.Precip-Inc.Total.1Hour.1Hour.Ccp-Rev
COOL.Stage.Inst.1Hour.0.Ccp-Rev
COOL.Stage-Alt.Inst.1Hour.0.Ccp-Rev
COOL.Flow.Inst.1Hour.0.Ccp-Rev
COOL.Temp-Water.Inst.1Hour.0.Ccp-Rev
COOL.Cond.Inst.1Hour.0.Ccp-Rev
COOL.Volt-Battery Load.Inst.1Hour.0.Ccp-Rev

                            

All information presented herein is the property of the government of the United States of America and may be revised or deleted at any time without prior notice. Dissemination of this information without the expressed written consent of the Public Affairs Office, Tulsa District U.S. Army Corps of Engineers is strictly prohibited. These data are gathered electronically and, as presented, have NOT undergone any form of quality control. These data are NOT guaranteed to be valid or correct.